sensor_id;sensor_type;location;lat;lon;timestamp;temperature;humidity
49413;DHT22;35493;50.276;9.372;2022-07-24T00:02:26;22.10;62.70
49413;DHT22;35493;50.276;9.372;2022-07-24T00:04:57;22.10;62.90
49413;DHT22;35493;50.276;9.372;2022-07-24T00:07:27;22.10;62.90
49413;DHT22;35493;50.276;9.372;2022-07-24T00:09:54;22.10;63.20
49413;DHT22;35493;50.276;9.372;2022-07-24T00:12:21;22.10;63.60
49413;DHT22;35493;50.276;9.372;2022-07-24T00:14:49;22.00;63.90
49413;DHT22;35493;50.276;9.372;2022-07-24T00:17:16;21.90;63.90
49413;DHT22;35493;50.276;9.372;2022-07-24T00:19:43;21.90;63.90
49413;DHT22;35493;50.276;9.372;2022-07-24T00:22:10;21.90;63.80
49413;DHT22;35493;50.276;9.372;2022-07-24T00:24:38;21.90;64.00
49413;DHT22;35493;50.276;9.372;2022-07-24T00:27:05;21.80;64.10
49413;DHT22;35493;50.276;9.372;2022-07-24T00:29:32;21.80;64.20
49413;DHT22;35493;50.276;9.372;2022-07-24T00:31:59;21.70;64.30
49413;DHT22;35493;50.276;9.372;2022-07-24T00:34:27;21.70;64.40
49413;DHT22;35493;50.276;9.372;2022-07-24T00:36:54;21.70;64.30
49413;DHT22;35493;50.276;9.372;2022-07-24T00:39:21;21.70;64.40
49413;DHT22;35493;50.276;9.372;2022-07-24T00:41:49;21.60;64.20
49413;DHT22;35493;50.276;9.372;2022-07-24T00:44:19;21.60;64.10
49413;DHT22;35493;50.276;9.372;2022-07-24T00:46:47;21.60;64.10
49413;DHT22;35493;50.276;9.372;2022-07-24T00:49:16;21.60;64.10
49413;DHT22;35493;50.276;9.372;2022-07-24T00:51:45;21.60;64.10
49413;DHT22;35493;50.276;9.372;2022-07-24T00:54:13;21.60;64.10
49413;DHT22;35493;50.276;9.372;2022-07-24T00:56:41;21.60;64.00
49413;DHT22;35493;50.276;9.372;2022-07-24T00:59:09;21.60;64.20
49413;DHT22;35493;50.276;9.372;2022-07-24T01:01:37;21.50;64.30
49413;DHT22;35493;50.276;9.372;2022-07-24T01:04:04;21.50;64.50
49413;DHT22;35493;50.276;9.372;2022-07-24T01:06:31;21.50;64.50
49413;DHT22;35493;50.276;9.372;2022-07-24T01:08:58;21.40;64.70
49413;DHT22;35493;50.276;9.372;2022-07-24T01:11:27;21.40;64.80
49413;DHT22;35493;50.276;9.372;2022-07-24T01:13:55;21.40;64.90
49413;DHT22;35493;50.276;9.372;2022-07-24T01:16:24;21.40;64.90
49413;DHT22;35493;50.276;9.372;2022-07-24T01:18:51;21.30;65.10
49413;DHT22;35493;50.276;9.372;2022-07-24T01:21:19;21.30;65.10
49413;DHT22;35493;50.276;9.372;2022-07-24T01:23:46;21.30;65.00
49413;DHT22;35493;50.276;9.372;2022-07-24T01:26:13;21.30;65.10
49413;DHT22;35493;50.276;9.372;2022-07-24T01:28:40;21.20;65.10
49413;DHT22;35493;50.276;9.372;2022-07-24T01:31:07;21.20;65.30
49413;DHT22;35493;50.276;9.372;2022-07-24T01:33:34;21.20;65.40
49413;DHT22;35493;50.276;9.372;2022-07-24T01:36:01;21.20;65.40
49413;DHT22;35493;50.276;9.372;2022-07-24T01:38:29;21.20;65.40
49413;DHT22;35493;50.276;9.372;2022-07-24T01:40:56;21.20;65.40
49413;DHT22;35493;50.276;9.372;2022-07-24T01:43:23;21.20;65.40
49413;DHT22;35493;50.276;9.372;2022-07-24T01:45:50;21.10;65.40
49413;DHT22;35493;50.276;9.372;2022-07-24T01:48:17;21.10;65.50
49413;DHT22;35493;50.276;9.372;2022-07-24T01:50:44;21.10;65.50
49413;DHT22;35493;50.276;9.372;2022-07-24T01:53:11;21.00;65.70
49413;DHT22;35493;50.276;9.372;2022-07-24T01:55:39;21.00;65.90
49413;DHT22;35493;50.276;9.372;2022-07-24T01:58:06;21.00;66.00
49413;DHT22;35493;50.276;9.372;2022-07-24T02:00:33;20.90;66.20
49413;DHT22;35493;50.276;9.372;2022-07-24T02:03:00;20.90;66.40
49413;DHT22;35493;50.276;9.372;2022-07-24T02:05:28;20.90;66.40
49413;DHT22;35493;50.276;9.372;2022-07-24T02:07:57;20.90;66.50
49413;DHT22;35493;50.276;9.372;2022-07-24T02:10:26;20.90;66.60
49413;DHT22;35493;50.276;9.372;2022-07-24T02:12:55;20.80;66.70
49413;DHT22;35493;50.276;9.372;2022-07-24T02:15:22;20.90;66.90
49413;DHT22;35493;50.276;9.372;2022-07-24T02:17:51;20.80;67.00
49413;DHT22;35493;50.276;9.372;2022-07-24T02:20:19;20.90;66.90
49413;DHT22;35493;50.276;9.372;2022-07-24T02:22:46;20.80;66.90
49413;DHT22;35493;50.276;9.372;2022-07-24T02:25:13;20.80;67.00
49413;DHT22;35493;50.276;9.372;2022-07-24T02:27:41;20.70;67.00
49413;DHT22;35493;50.276;9.372;2022-07-24T02:30:11;20.60;67.00
49413;DHT22;35493;50.276;9.372;2022-07-24T02:32:38;20.60;67.20
49413;DHT22;35493;50.276;9.372;2022-07-24T02:35:05;20.60;67.20
49413;DHT22;35493;50.276;9.372;2022-07-24T02:37:34;20.60;67.20
49413;DHT22;35493;50.276;9.372;2022-07-24T02:40:02;20.60;67.30
49413;DHT22;35493;50.276;9.372;2022-07-24T02:42:29;20.60;67.30
49413;DHT22;35493;50.276;9.372;2022-07-24T02:44:56;20.50;67.40
49413;DHT22;35493;50.276;9.372;2022-07-24T02:47:24;20.50;67.50
49413;DHT22;35493;50.276;9.372;2022-07-24T02:49:51;20.40;67.60
49413;DHT22;35493;50.276;9.372;2022-07-24T02:52:18;20.40;67.60
49413;DHT22;35493;50.276;9.372;2022-07-24T02:54:45;20.40;67.60
49413;DHT22;35493;50.276;9.372;2022-07-24T02:57:12;20.40;67.50
49413;DHT22;35493;50.276;9.372;2022-07-24T02:59:39;20.30;67.40
49413;DHT22;35493;50.276;9.372;2022-07-24T03:02:06;20.30;67.50
49413;DHT22;35493;50.276;9.372;2022-07-24T03:04:34;20.30;67.60
49413;DHT22;35493;50.276;9.372;2022-07-24T03:07:01;20.30;67.60
49413;DHT22;35493;50.276;9.372;2022-07-24T03:09:28;20.20;67.70
49413;DHT22;35493;50.276;9.372;2022-07-24T03:11:55;20.20;67.90
49413;DHT22;35493;50.276;9.372;2022-07-24T03:14:21;20.20;68.00
49413;DHT22;35493;50.276;9.372;2022-07-24T03:16:48;20.10;67.90
49413;DHT22;35493;50.276;9.372;2022-07-24T03:19:15;20.10;68.00
49413;DHT22;35493;50.276;9.372;2022-07-24T03:21:43;20.00;68.10
49413;DHT22;35493;50.276;9.372;2022-07-24T03:24:10;20.10;68.10
49413;DHT22;35493;50.276;9.372;2022-07-24T03:26:37;20.00;68.30
49413;DHT22;35493;50.276;9.372;2022-07-24T03:29:04;20.00;68.40
49413;DHT22;35493;50.276;9.372;2022-07-24T03:31:31;20.00;68.40
49413;DHT22;35493;50.276;9.372;2022-07-24T03:33:58;20.00;68.40
49413;DHT22;35493;50.276;9.372;2022-07-24T03:36:25;20.00;68.40
49413;DHT22;35493;50.276;9.372;2022-07-24T03:38:53;20.00;68.40
49413;DHT22;35493;50.276;9.372;2022-07-24T03:41:20;20.00;68.30
49413;DHT22;35493;50.276;9.372;2022-07-24T03:43:47;19.90;68.50
49413;DHT22;35493;50.276;9.372;2022-07-24T03:46:14;19.90;68.60
49413;DHT22;35493;50.276;9.372;2022-07-24T03:48:40;19.80;68.60
49413;DHT22;35493;50.276;9.372;2022-07-24T03:51:08;19.80;68.70
49413;DHT22;35493;50.276;9.372;2022-07-24T03:53:35;19.80;68.70
49413;DHT22;35493;50.276;9.372;2022-07-24T03:56:06;19.70;68.90
49413;DHT22;35493;50.276;9.372;2022-07-24T03:58:33;19.70;68.90
49413;DHT22;35493;50.276;9.372;2022-07-24T04:01:01;19.70;68.90
49413;DHT22;35493;50.276;9.372;2022-07-24T04:03:28;19.80;68.90
49413;DHT22;35493;50.276;9.372;2022-07-24T04:05:55;19.70;68.80
49413;DHT22;35493;50.276;9.372;2022-07-24T04:08:22;19.70;68.80
49413;DHT22;35493;50.276;9.372;2022-07-24T04:10:49;19.70;68.70
49413;DHT22;35493;50.276;9.372;2022-07-24T04:13:23;19.70;68.70
49413;DHT22;35493;50.276;9.372;2022-07-24T04:15:51;19.60;68.80
49413;DHT22;35493;50.276;9.372;2022-07-24T04:18:18;19.60;68.80
49413;DHT22;35493;50.276;9.372;2022-07-24T04:20:45;19.60;69.00
49413;DHT22;35493;50.276;9.372;2022-07-24T04:23:12;19.60;69.10
49413;DHT22;35493;50.276;9.372;2022-07-24T04:25:39;19.60;69.10
49413;DHT22;35493;50.276;9.372;2022-07-24T04:28:06;19.60;69.20
49413;DHT22;35493;50.276;9.372;2022-07-24T04:30:35;19.60;69.20
49413;DHT22;35493;50.276;9.372;2022-07-24T04:33:02;19.60;69.30
49413;DHT22;35493;50.276;9.372;2022-07-24T04:35:28;19.60;69.40
49413;DHT22;35493;50.276;9.372;2022-07-24T04:37:56;19.60;69.50
49413;DHT22;35493;50.276;9.372;2022-07-24T04:40:23;19.60;69.70
49413;DHT22;35493;50.276;9.372;2022-07-24T04:42:50;19.60;69.80
49413;DHT22;35493;50.276;9.372;2022-07-24T04:45:17;19.60;69.80
49413;DHT22;35493;50.276;9.372;2022-07-24T04:47:45;19.60;69.70
49413;DHT22;35493;50.276;9.372;2022-07-24T04:50:12;19.60;69.50
49413;DHT22;35493;50.276;9.372;2022-07-24T04:52:39;19.60;69.50
49413;DHT22;35493;50.276;9.372;2022-07-24T04:55:06;19.60;69.60
49413;DHT22;35493;50.276;9.372;2022-07-24T04:57:33;19.60;69.80
49413;DHT22;35493;50.276;9.372;2022-07-24T05:00:00;19.70;69.70
49413;DHT22;35493;50.276;9.372;2022-07-24T05:02:27;19.70;69.70
49413;DHT22;35493;50.276;9.372;2022-07-24T05:04:56;19.70;69.60
49413;DHT22;35493;50.276;9.372;2022-07-24T05:07:23;19.70;69.20
49413;DHT22;35493;50.276;9.372;2022-07-24T05:09:50;19.80;69.00
49413;DHT22;35493;50.276;9.372;2022-07-24T05:12:16;19.80;68.70
49413;DHT22;35493;50.276;9.372;2022-07-24T05:14:43;19.80;68.70
49413;DHT22;35493;50.276;9.372;2022-07-24T05:17:10;19.80;68.70
49413;DHT22;35493;50.276;9.372;2022-07-24T05:19:37;19.80;68.80
49413;DHT22;35493;50.276;9.372;2022-07-24T05:22:05;19.90;68.70
49413;DHT22;35493;50.276;9.372;2022-07-24T05:24:33;19.90;68.70
49413;DHT22;35493;50.276;9.372;2022-07-24T05:27:00;19.90;68.70
49413;DHT22;35493;50.276;9.372;2022-07-24T05:29:26;19.90;68.80
49413;DHT22;35493;50.276;9.372;2022-07-24T05:31:53;19.90;68.90
49413;DHT22;35493;50.276;9.372;2022-07-24T05:34:20;19.90;68.90
49413;DHT22;35493;50.276;9.372;2022-07-24T05:36:48;20.00;68.50
49413;DHT22;35493;50.276;9.372;2022-07-24T05:39:16;20.10;68.10
49413;DHT22;35493;50.276;9.372;2022-07-24T05:41:43;20.10;68.00
49413;DHT22;35493;50.276;9.372;2022-07-24T05:44:10;20.10;67.80
49413;DHT22;35493;50.276;9.372;2022-07-24T05:46:37;20.10;68.10
49413;DHT22;35493;50.276;9.372;2022-07-24T05:49:04;20.20;68.00
49413;DHT22;35493;50.276;9.372;2022-07-24T05:51:32;20.20;68.20
49413;DHT22;35493;50.276;9.372;2022-07-24T05:53:59;20.20;68.10
49413;DHT22;35493;50.276;9.372;2022-07-24T05:56:27;20.30;68.20
49413;DHT22;35493;50.276;9.372;2022-07-24T05:58:54;20.40;67.80
49413;DHT22;35493;50.276;9.372;2022-07-24T06:01:21;20.40;68.10
49413;DHT22;35493;50.276;9.372;2022-07-24T06:03:48;20.50;67.90
49413;DHT22;35493;50.276;9.372;2022-07-24T06:06:15;20.60;67.50
49413;DHT22;35493;50.276;9.372;2022-07-24T06:08:42;20.60;67.50
49413;DHT22;35493;50.276;9.372;2022-07-24T06:11:11;20.60;67.70
49413;DHT22;35493;50.276;9.372;2022-07-24T06:13:39;20.70;67.60
49413;DHT22;35493;50.276;9.372;2022-07-24T06:16:06;20.70;67.30
49413;DHT22;35493;50.276;9.372;2022-07-24T06:18:33;20.80;67.40
49413;DHT22;35493;50.276;9.372;2022-07-24T06:21:00;20.80;67.40
49413;DHT22;35493;50.276;9.372;2022-07-24T06:23:27;20.90;66.90
49413;DHT22;35493;50.276;9.372;2022-07-24T06:25:54;20.90;67.10
49413;DHT22;35493;50.276;9.372;2022-07-24T06:28:21;20.90;67.00
49413;DHT22;35493;50.276;9.372;2022-07-24T06:30:50;20.90;66.90
49413;DHT22;35493;50.276;9.372;2022-07-24T06:33:17;20.90;66.70
49413;DHT22;35493;50.276;9.372;2022-07-24T06:35:44;21.00;66.60
49413;DHT22;35493;50.276;9.372;2022-07-24T06:38:11;21.00;66.80
49413;DHT22;35493;50.276;9.372;2022-07-24T06:40:38;21.10;66.70
49413;DHT22;35493;50.276;9.372;2022-07-24T06:43:05;21.20;66.70
49413;DHT22;35493;50.276;9.372;2022-07-24T06:45:32;21.20;66.70
49413;DHT22;35493;50.276;9.372;2022-07-24T06:48:00;21.40;66.30
49413;DHT22;35493;50.276;9.372;2022-07-24T06:50:28;21.50;65.90
49413;DHT22;35493;50.276;9.372;2022-07-24T06:52:55;21.60;65.90
49413;DHT22;35493;50.276;9.372;2022-07-24T06:55:22;21.70;65.40
49413;DHT22;35493;50.276;9.372;2022-07-24T06:57:49;21.80;65.20
49413;DHT22;35493;50.276;9.372;2022-07-24T07:00:16;21.90;65.10
49413;DHT22;35493;50.276;9.372;2022-07-24T07:02:43;22.00;64.90
49413;DHT22;35493;50.276;9.372;2022-07-24T07:05:13;22.10;64.60
49413;DHT22;35493;50.276;9.372;2022-07-24T07:07:39;22.30;64.40
49413;DHT22;35493;50.276;9.372;2022-07-24T07:10:08;22.40;63.90
49413;DHT22;35493;50.276;9.372;2022-07-24T07:12:35;22.60;63.70
49413;DHT22;35493;50.276;9.372;2022-07-24T07:15:03;22.60;63.20
49413;DHT22;35493;50.276;9.372;2022-07-24T07:17:30;22.80;63.00
49413;DHT22;35493;50.276;9.372;2022-07-24T07:19:57;22.90;62.50
49413;DHT22;35493;50.276;9.372;2022-07-24T07:22:25;23.00;62.30
49413;DHT22;35493;50.276;9.372;2022-07-24T07:24:52;23.10;62.00
49413;DHT22;35493;50.276;9.372;2022-07-24T07:27:19;23.30;61.40
49413;DHT22;35493;50.276;9.372;2022-07-24T07:29:46;23.50;61.10
49413;DHT22;35493;50.276;9.372;2022-07-24T07:32:13;23.60;60.20
49413;DHT22;35493;50.276;9.372;2022-07-24T07:34:40;23.70;60.10
49413;DHT22;35493;50.276;9.372;2022-07-24T07:37:07;23.90;59.50
49413;DHT22;35493;50.276;9.372;2022-07-24T07:39:35;24.00;59.80
49413;DHT22;35493;50.276;9.372;2022-07-24T07:42:02;24.10;59.60
49413;DHT22;35493;50.276;9.372;2022-07-24T07:44:29;24.30;58.50
49413;DHT22;35493;50.276;9.372;2022-07-24T07:46:56;24.40;58.60
49413;DHT22;35493;50.276;9.372;2022-07-24T07:49:23;24.50;58.40
49413;DHT22;35493;50.276;9.372;2022-07-24T07:51:50;24.60;57.80
49413;DHT22;35493;50.276;9.372;2022-07-24T07:54:18;24.60;57.60
49413;DHT22;35493;50.276;9.372;2022-07-24T07:56:47;24.80;57.80
49413;DHT22;35493;50.276;9.372;2022-07-24T07:59:14;24.90;57.60
49413;DHT22;35493;50.276;9.372;2022-07-24T08:01:41;25.00;57.10
49413;DHT22;35493;50.276;9.372;2022-07-24T08:04:07;25.10;56.60
49413;DHT22;35493;50.276;9.372;2022-07-24T08:06:34;25.30;56.50
49413;DHT22;35493;50.276;9.372;2022-07-24T08:09:02;25.50;56.00
49413;DHT22;35493;50.276;9.372;2022-07-24T08:11:29;25.60;55.90
49413;DHT22;35493;50.276;9.372;2022-07-24T08:13:58;25.70;55.70
49413;DHT22;35493;50.276;9.372;2022-07-24T08:16:25;25.80;55.50
49413;DHT22;35493;50.276;9.372;2022-07-24T08:18:52;26.00;55.20
49413;DHT22;35493;50.276;9.372;2022-07-24T08:21:19;26.10;54.30
49413;DHT22;35493;50.276;9.372;2022-07-24T08:23:47;26.20;54.00
49413;DHT22;35493;50.276;9.372;2022-07-24T08:26:14;26.30;54.30
49413;DHT22;35493;50.276;9.372;2022-07-24T08:28:41;26.40;53.60
49413;DHT22;35493;50.276;9.372;2022-07-24T08:31:10;26.50;53.50
49413;DHT22;35493;50.276;9.372;2022-07-24T08:33:38;26.60;53.60
49413;DHT22;35493;50.276;9.372;2022-07-24T08:36:06;26.60;53.40
49413;DHT22;35493;50.276;9.372;2022-07-24T08:38:33;26.70;52.80
49413;DHT22;35493;50.276;9.372;2022-07-24T08:41:00;26.80;50.80
49413;DHT22;35493;50.276;9.372;2022-07-24T08:43:28;26.90;50.20
49413;DHT22;35493;50.276;9.372;2022-07-24T08:45:55;27.10;51.00
49413;DHT22;35493;50.276;9.372;2022-07-24T08:48:24;27.20;50.40
49413;DHT22;35493;50.276;9.372;2022-07-24T08:50:53;27.30;49.70
49413;DHT22;35493;50.276;9.372;2022-07-24T08:53:21;27.40;46.00
49413;DHT22;35493;50.276;9.372;2022-07-24T08:55:49;27.50;46.20
49413;DHT22;35493;50.276;9.372;2022-07-24T08:58:16;27.60;46.50
49413;DHT22;35493;50.276;9.372;2022-07-24T09:00:43;27.60;46.70
49413;DHT22;35493;50.276;9.372;2022-07-24T09:03:10;27.70;47.20
49413;DHT22;35493;50.276;9.372;2022-07-24T09:05:55;27.80;47.40
49413;DHT22;35493;50.276;9.372;2022-07-24T09:08:22;27.90;46.80
49413;DHT22;35493;50.276;9.372;2022-07-24T09:10:59;28.00;46.60
49413;DHT22;35493;50.276;9.372;2022-07-24T09:13:29;28.10;46.50
49413;DHT22;35493;50.276;9.372;2022-07-24T09:16:20;28.10;45.90
49413;DHT22;35493;50.276;9.372;2022-07-24T09:18:49;28.30;45.60
49413;DHT22;35493;50.276;9.372;2022-07-24T09:21:18;28.30;45.00
49413;DHT22;35493;50.276;9.372;2022-07-24T09:23:45;28.40;44.80
49413;DHT22;35493;50.276;9.372;2022-07-24T09:26:14;28.50;44.50
49413;DHT22;35493;50.276;9.372;2022-07-24T09:28:52;28.60;44.50
49413;DHT22;35493;50.276;9.372;2022-07-24T09:31:19;28.70;44.20
49413;DHT22;35493;50.276;9.372;2022-07-24T09:33:48;28.80;43.30
49413;DHT22;35493;50.276;9.372;2022-07-24T09:36:18;29.00;43.20
49413;DHT22;35493;50.276;9.372;2022-07-24T09:38:47;29.00;42.70
49413;DHT22;35493;50.276;9.372;2022-07-24T09:41:22;29.10;42.60
49413;DHT22;35493;50.276;9.372;2022-07-24T09:44:00;29.20;42.40
49413;DHT22;35493;50.276;9.372;2022-07-24T09:46:28;29.30;42.30
49413;DHT22;35493;50.276;9.372;2022-07-24T09:48:57;29.40;42.40
49413;DHT22;35493;50.276;9.372;2022-07-24T09:51:27;29.50;42.60
49413;DHT22;35493;50.276;9.372;2022-07-24T09:53:56;29.60;42.50
49413;DHT22;35493;50.276;9.372;2022-07-24T09:56:24;29.60;42.40
49413;DHT22;35493;50.276;9.372;2022-07-24T09:58:53;29.70;42.30
49413;DHT22;35493;50.276;9.372;2022-07-24T10:01:21;29.80;42.10
49413;DHT22;35493;50.276;9.372;2022-07-24T10:03:50;30.00;42.20
49413;DHT22;35493;50.276;9.372;2022-07-24T10:06:19;30.00;42.10
49413;DHT22;35493;50.276;9.372;2022-07-24T10:08:50;30.10;41.30
49413;DHT22;35493;50.276;9.372;2022-07-24T10:11:18;30.20;40.90
49413;DHT22;35493;50.276;9.372;2022-07-24T10:13:46;30.20;40.80
49413;DHT22;35493;50.276;9.372;2022-07-24T10:16:29;30.30;40.60
49413;DHT22;35493;50.276;9.372;2022-07-24T10:18:58;30.40;40.10
49413;DHT22;35493;50.276;9.372;2022-07-24T10:21:26;30.40;39.20
49413;DHT22;35493;50.276;9.372;2022-07-24T10:27:04;30.50;39.40
49413;DHT22;35493;50.276;9.372;2022-07-24T10:29:34;30.50;39.40
49413;DHT22;35493;50.276;9.372;2022-07-24T10:32:02;30.60;39.90
49413;DHT22;35493;50.276;9.372;2022-07-24T10:34:46;30.70;39.80
49413;DHT22;35493;50.276;9.372;2022-07-24T10:37:26;30.80;39.30
49413;DHT22;35493;50.276;9.372;2022-07-24T10:40:08;30.90;39.70
49413;DHT22;35493;50.276;9.372;2022-07-24T10:43:08;31.00;39.70
49413;DHT22;35493;50.276;9.372;2022-07-24T10:45:36;31.00;39.60
49413;DHT22;35493;50.276;9.372;2022-07-24T10:48:26;31.00;39.20
49413;DHT22;35493;50.276;9.372;2022-07-24T10:51:00;31.10;39.10
49413;DHT22;35493;50.276;9.372;2022-07-24T10:53:29;31.20;39.10
49413;DHT22;35493;50.276;9.372;2022-07-24T10:56:17;31.20;38.70
49413;DHT22;35493;50.276;9.372;2022-07-24T10:58:59;31.30;38.50
49413;DHT22;35493;50.276;9.372;2022-07-24T11:01:37;31.40;38.60
49413;DHT22;35493;50.276;9.372;2022-07-24T11:04:29;31.40;38.70
49413;DHT22;35493;50.276;9.372;2022-07-24T11:07:09;31.40;38.80
49413;DHT22;35493;50.276;9.372;2022-07-24T11:09:59;31.50;38.70
49413;DHT22;35493;50.276;9.372;2022-07-24T11:12:29;31.50;38.40
49413;DHT22;35493;50.276;9.372;2022-07-24T11:15:00;31.50;38.20
49413;DHT22;35493;50.276;9.372;2022-07-24T11:17:42;31.50;38.30
49413;DHT22;35493;50.276;9.372;2022-07-24T11:20:11;31.60;37.90
49413;DHT22;35493;50.276;9.372;2022-07-24T11:22:40;31.60;37.70
49413;DHT22;35493;50.276;9.372;2022-07-24T11:25:13;31.60;37.40
49413;DHT22;35493;50.276;9.372;2022-07-24T11:27:51;31.60;37.50
49413;DHT22;35493;50.276;9.372;2022-07-24T11:30:20;31.70;37.20
49413;DHT22;35493;50.276;9.372;2022-07-24T11:32:47;31.70;37.30
49413;DHT22;35493;50.276;9.372;2022-07-24T11:35:15;31.80;37.10
49413;DHT22;35493;50.276;9.372;2022-07-24T11:37:43;31.80;36.90
49413;DHT22;35493;50.276;9.372;2022-07-24T11:40:15;31.90;37.10
49413;DHT22;35493;50.276;9.372;2022-07-24T11:42:43;31.90;36.80
49413;DHT22;35493;50.276;9.372;2022-07-24T11:45:11;32.00;36.90
49413;DHT22;35493;50.276;9.372;2022-07-24T11:47:38;32.00;37.20
49413;DHT22;35493;50.276;9.372;2022-07-24T11:50:06;32.00;37.20
49413;DHT22;35493;50.276;9.372;2022-07-24T11:52:35;32.00;36.90
49413;DHT22;35493;50.276;9.372;2022-07-24T11:55:05;32.00;36.20
49413;DHT22;35493;50.276;9.372;2022-07-24T11:57:34;32.00;36.40
49413;DHT22;35493;50.276;9.372;2022-07-24T12:00:03;32.10;36.10
49413;DHT22;35493;50.276;9.372;2022-07-24T12:02:42;32.10;36.30
49413;DHT22;35493;50.276;9.372;2022-07-24T12:05:09;32.10;36.50
49413;DHT22;35493;50.276;9.372;2022-07-24T12:07:36;32.20;36.30
49413;DHT22;35493;50.276;9.372;2022-07-24T12:10:04;32.20;36.70
49413;DHT22;35493;50.276;9.372;2022-07-24T12:12:32;32.10;36.60
49413;DHT22;35493;50.276;9.372;2022-07-24T12:15:02;32.20;36.50
49413;DHT22;35493;50.276;9.372;2022-07-24T12:17:30;32.20;36.30
49413;DHT22;35493;50.276;9.372;2022-07-24T12:20:00;32.20;36.30
49413;DHT22;35493;50.276;9.372;2022-07-24T12:22:28;32.30;36.90
49413;DHT22;35493;50.276;9.372;2022-07-24T12:24:56;32.20;36.50
49413;DHT22;35493;50.276;9.372;2022-07-24T12:27:38;32.20;36.40
49413;DHT22;35493;50.276;9.372;2022-07-24T12:30:20;32.20;36.30
49413;DHT22;35493;50.276;9.372;2022-07-24T12:32:56;32.20;35.90
49413;DHT22;35493;50.276;9.372;2022-07-24T12:35:25;32.20;36.40
49413;DHT22;35493;50.276;9.372;2022-07-24T12:37:53;32.20;36.20
49413;DHT22;35493;50.276;9.372;2022-07-24T12:40:25;32.20;36.70
49413;DHT22;35493;50.276;9.372;2022-07-24T12:42:57;32.10;36.20
49413;DHT22;35493;50.276;9.372;2022-07-24T12:45:24;32.10;36.40
49413;DHT22;35493;50.276;9.372;2022-07-24T12:48:16;32.10;36.40
49413;DHT22;35493;50.276;9.372;2022-07-24T12:51:04;32.20;36.10
49413;DHT22;35493;50.276;9.372;2022-07-24T12:53:33;32.20;35.40
49413;DHT22;35493;50.276;9.372;2022-07-24T12:56:06;32.30;35.30
49413;DHT22;35493;50.276;9.372;2022-07-24T12:58:50;32.20;35.40
49413;DHT22;35493;50.276;9.372;2022-07-24T13:01:18;32.20;36.20
49413;DHT22;35493;50.276;9.372;2022-07-24T13:03:58;32.20;35.60
49413;DHT22;35493;50.276;9.372;2022-07-24T13:06:47;32.20;35.30
49413;DHT22;35493;50.276;9.372;2022-07-24T13:09:16;32.20;36.00
49413;DHT22;35493;50.276;9.372;2022-07-24T13:11:44;32.20;35.70
49413;DHT22;35493;50.276;9.372;2022-07-24T13:14:12;32.10;36.70
49413;DHT22;35493;50.276;9.372;2022-07-24T13:16:42;32.10;36.30
49413;DHT22;35493;50.276;9.372;2022-07-24T13:19:10;32.00;37.00
49413;DHT22;35493;50.276;9.372;2022-07-24T13:21:38;31.90;36.70
49413;DHT22;35493;50.276;9.372;2022-07-24T13:24:08;31.80;37.80
49413;DHT22;35493;50.276;9.372;2022-07-24T13:26:36;31.80;36.90
49413;DHT22;35493;50.276;9.372;2022-07-24T13:29:04;31.80;36.90
49413;DHT22;35493;50.276;9.372;2022-07-24T13:31:31;31.80;35.90
49413;DHT22;35493;50.276;9.372;2022-07-24T13:33:58;31.70;36.00
49413;DHT22;35493;50.276;9.372;2022-07-24T13:36:25;31.70;36.90
49413;DHT22;35493;50.276;9.372;2022-07-24T13:38:52;31.60;38.30
49413;DHT22;35493;50.276;9.372;2022-07-24T13:41:21;31.50;37.50
49413;DHT22;35493;50.276;9.372;2022-07-24T13:43:48;31.60;37.70
49413;DHT22;35493;50.276;9.372;2022-07-24T13:46:16;31.60;36.60
49413;DHT22;35493;50.276;9.372;2022-07-24T13:48:44;31.60;36.80
49413;DHT22;35493;50.276;9.372;2022-07-24T13:51:11;31.50;37.20
49413;DHT22;35493;50.276;9.372;2022-07-24T13:53:38;31.50;38.50
49413;DHT22;35493;50.276;9.372;2022-07-24T13:56:05;31.40;38.70
49413;DHT22;35493;50.276;9.372;2022-07-24T13:58:34;31.30;37.90
49413;DHT22;35493;50.276;9.372;2022-07-24T14:01:02;31.40;38.20
49413;DHT22;35493;50.276;9.372;2022-07-24T14:03:29;31.30;38.00
49413;DHT22;35493;50.276;9.372;2022-07-24T14:05:56;31.30;37.20
49413;DHT22;35493;50.276;9.372;2022-07-24T14:08:23;31.30;37.80
49413;DHT22;35493;50.276;9.372;2022-07-24T14:10:50;31.20;37.80
49413;DHT22;35493;50.276;9.372;2022-07-24T14:13:17;31.20;37.70
49413;DHT22;35493;50.276;9.372;2022-07-24T14:15:46;31.10;38.00
49413;DHT22;35493;50.276;9.372;2022-07-24T14:18:14;31.20;36.70
49413;DHT22;35493;50.276;9.372;2022-07-24T14:20:41;31.20;37.50
49413;DHT22;35493;50.276;9.372;2022-07-24T14:23:08;31.10;38.00
49413;DHT22;35493;50.276;9.372;2022-07-24T14:25:35;31.10;37.00
49413;DHT22;35493;50.276;9.372;2022-07-24T14:28:02;31.10;38.50
49413;DHT22;35493;50.276;9.372;2022-07-24T14:30:30;31.10;38.10
49413;DHT22;35493;50.276;9.372;2022-07-24T14:32:58;31.10;37.60
49413;DHT22;35493;50.276;9.372;2022-07-24T14:35:25;31.10;37.50
49413;DHT22;35493;50.276;9.372;2022-07-24T14:37:52;31.10;38.00
49413;DHT22;35493;50.276;9.372;2022-07-24T14:40:19;31.10;36.90
49413;DHT22;35493;50.276;9.372;2022-07-24T14:42:47;31.20;36.70
49413;DHT22;35493;50.276;9.372;2022-07-24T14:45:14;31.10;37.20
49413;DHT22;35493;50.276;9.372;2022-07-24T14:47:41;31.10;38.50
49413;DHT22;35493;50.276;9.372;2022-07-24T14:50:09;31.00;38.10
49413;DHT22;35493;50.276;9.372;2022-07-24T14:52:37;31.00;37.60
49413;DHT22;35493;50.276;9.372;2022-07-24T14:55:05;31.00;37.00
49413;DHT22;35493;50.276;9.372;2022-07-24T14:57:33;31.00;37.00
49413;DHT22;35493;50.276;9.372;2022-07-24T15:00:00;31.00;36.90
49413;DHT22;35493;50.276;9.372;2022-07-24T15:02:27;31.00;38.30
49413;DHT22;35493;50.276;9.372;2022-07-24T15:04:54;30.90;38.10
49413;DHT22;35493;50.276;9.372;2022-07-24T15:07:22;30.90;37.30
49413;DHT22;35493;50.276;9.372;2022-07-24T15:09:49;30.90;38.50
49413;DHT22;35493;50.276;9.372;2022-07-24T15:12:16;30.90;38.60
49413;DHT22;35493;50.276;9.372;2022-07-24T15:14:43;30.80;38.60
49413;DHT22;35493;50.276;9.372;2022-07-24T15:17:10;30.80;37.20
49413;DHT22;35493;50.276;9.372;2022-07-24T15:19:37;30.90;37.80
49413;DHT22;35493;50.276;9.372;2022-07-24T15:22:04;30.80;38.40
49413;DHT22;35493;50.276;9.372;2022-07-24T15:24:32;30.70;37.90
49413;DHT22;35493;50.276;9.372;2022-07-24T15:26:59;30.70;38.00
49413;DHT22;35493;50.276;9.372;2022-07-24T15:29:26;30.70;39.10
49413;DHT22;35493;50.276;9.372;2022-07-24T15:31:56;30.60;37.90
49413;DHT22;35493;50.276;9.372;2022-07-24T15:34:22;30.70;37.70
49413;DHT22;35493;50.276;9.372;2022-07-24T15:36:50;30.60;37.70
49413;DHT22;35493;50.276;9.372;2022-07-24T15:39:17;30.60;36.80
49413;DHT22;35493;50.276;9.372;2022-07-24T15:41:45;30.70;36.60
49413;DHT22;35493;50.276;9.372;2022-07-24T15:44:12;30.70;37.60